Crestview, FL

2:24 AM CST on November 24, 2014 (GMT -0600)
EW5235 | Change Station
CLOSE
Current Station
Personal Weather Station
Location: Crestview, FL
Elevation: 157 ft
Nearby Weather Stations

Elev 157 ft 30.71 °N, 86.58 °W | Updated 5 seconds ago

Overcast
Overcast
69.8 °F
Feels Like 69.8 °F
N
0.0
Wind Variable Wind from West
Gusts 1.0 mph

Today
High -- | Low -- °F
--% Chance of Precip.
Yesterday
High -- | Low -- °F
Precip. -- in
6:20 AM 4:45 PM
Waxing Crescent, 4% visible
Pressure 29.77 in
Visibility 8.0 miles
Clouds Mostly Cloudy 700 ft
Overcast 2000 ft
Dew Point 69 °F
Humidity 97%
Rainfall 0.00 in
Snow Depth Not available.
UV 0 out of 12
Pollen .40 out of 12
Air Quality Not available.
Flu Activity Not available.
METAR KCEW 240753Z AUTO 00000KT 8SM BKN007 OVC020 21/21 A2977 RMK AO2 SLP079 T02110206 $

More Conditions Fewer Conditions

Pressure 29.77 in
Visibility 8.0 miles
Clouds Mostly Cloudy 700 ft
Overcast 2000 ft
Dew Point 69 °F
Humidity 97%
Rainfall 0.00 in
Snow Depth Not available.
UV 0 out of 12
Pollen .40 out of 12
Air Quality Not available.
Flu Activity Not available.
METAR KCEW 240753Z AUTO 00000KT 8SM BKN007 OVC020 21/21 A2977 RMK AO2 SLP079 T02110206 $

More Conditions Fewer Conditions

10-Day Weather Forecast

Almanac

Astronomy

Nov. 24, 2014 Rise Set
Actual Time
Civil Twilight
Nautical Twilight
Astronomical Twilight
Moon
Length of Visible Light
Length of Day
Tomorrow will be .
, % of the Moon is Illuminated

Today's Extremes

State Highs State Lows

Community

WunderPhotos

Upload Photos

1,773,295 photos uploaded!

WunderBlogs® & News

Nearby

Air Quality

  Air Quality AQ Index Pollutant
Not available.

Snow Depth

Station Depth Elevation

Earthquake Activity

City Distance Mag. Time & Date
Minimum magnitude displayed is 2.5.

Coastal Water Temperatures

Place Temperature

Nearby Weather Stations